createdAt,value
2022-10-11T00:02:07.260Z,64.02441
2022-10-11T00:04:07.266Z,63.86914
2022-10-11T00:06:08.365Z,64.08301
2022-10-11T00:08:07.312Z,64.2373
2022-10-11T00:10:07.326Z,63.96289
2022-10-11T00:12:07.260Z,63.82324
2022-10-11T00:14:07.257Z,64.0791
2022-10-11T00:16:53.241Z,64.17871
2022-10-11T00:18:53.226Z,64.58105
2022-10-11T00:20:53.244Z,64.4834
2022-10-11T00:22:53.304Z,64.5459
2022-10-11T00:24:53.288Z,64.57617
2022-10-11T00:26:53.224Z,64.54785
2022-10-11T00:28:53.441Z,64.83789
2022-10-11T00:32:01.098Z,64.5957
2022-10-11T00:34:01.152Z,64.74805
2022-10-11T00:36:01.238Z,64.9834
2022-10-11T00:38:01.166Z,64.79004
2022-10-11T00:40:01.086Z,64.54297
2022-10-11T00:42:01.103Z,64.53516
2022-10-11T00:44:01.073Z,63.92871
2022-10-11T00:47:30.088Z,64.29785
2022-10-11T00:49:30.166Z,64.92285
2022-10-11T00:51:30.033Z,64.7168
2022-10-11T00:53:30.124Z,64.33105
2022-10-11T00:55:30.054Z,64.36914
2022-10-11T00:57:30.074Z,64.11328
2022-10-11T00:59:29.992Z,64.56543
2022-10-11T01:02:16.435Z,65.32617
2022-10-11T01:04:16.435Z,64.78613
2022-10-11T01:06:16.470Z,64.61816
2022-10-11T01:08:16.478Z,64.69238
2022-10-11T01:10:16.483Z,64.4541
2022-10-11T01:12:16.427Z,64.40137
2022-10-11T01:14:16.463Z,64.90625
2022-10-11T01:17:25.100Z,64.44922
2022-10-11T01:19:25.093Z,64.02148
2022-10-11T01:21:25.143Z,64.36621
2022-10-11T01:23:25.132Z,64.28125
2022-10-11T01:25:25.134Z,64.04688
2022-10-11T01:27:25.094Z,64.82324
2022-10-11T01:29:25.080Z,65.57129
2022-10-11T01:33:13.568Z,66.12988
2022-10-11T01:35:13.553Z,66.36621
2022-10-11T01:37:13.569Z,66.02051
2022-10-11T01:39:13.550Z,66.30273
2022-10-11T01:41:13.621Z,67.38281
2022-10-11T01:43:13.569Z,66.60645
2022-10-11T01:45:13.608Z,66.52344
2022-10-11T01:48:10.505Z,66.49707
2022-10-11T01:50:10.557Z,67.05371
2022-10-11T01:52:10.495Z,66.85059
2022-10-11T01:54:10.493Z,66.64453
2022-10-11T01:56:10.526Z,66.70996
2022-10-11T01:58:10.525Z,66.98438
2022-10-11T02:00:10.547Z,66.9209
2022-10-11T02:03:10.685Z,66.50098
2022-10-11T02:05:10.709Z,66.89453
2022-10-11T02:07:10.648Z,67.07715
2022-10-11T02:09:10.663Z,67.15723
2022-10-11T02:11:10.633Z,66.99023
2022-10-11T02:13:10.685Z,67.32813
2022-10-11T02:15:10.681Z,67.4248
2022-10-11T02:18:35.454Z,67.43848
2022-10-11T02:20:35.421Z,67.10254
2022-10-11T02:22:35.424Z,67.08789
2022-10-11T02:24:35.447Z,66.94922
2022-10-11T02:26:35.410Z,67.24414
2022-10-11T02:28:35.516Z,67.31543
2022-10-11T02:30:35.455Z,67.37109
2022-10-11T02:33:49.524Z,67.32129
2022-10-11T02:35:49.550Z,67.24902
2022-10-11T02:37:49.494Z,67.60059
2022-10-11T02:39:49.465Z,67.22168
2022-10-11T02:41:49.452Z,67.1748
2022-10-11T02:43:49.484Z,67.41113
2022-10-11T02:45:49.506Z,67.36035
2022-10-11T02:48:55.244Z,67.51465
2022-10-11T02:50:55.181Z,67.80371
2022-10-11T02:52:55.167Z,67.74512
2022-10-11T02:54:55.201Z,67.80957
2022-10-11T02:56:55.192Z,67.89844
2022-10-11T02:58:55.268Z,68.04883
2022-10-11T03:00:55.246Z,67.83301
2022-10-11T03:03:43.747Z,67.63184
2022-10-11T03:05:43.755Z,68.12207
2022-10-11T03:07:43.723Z,67.95996
2022-10-11T03:09:43.726Z,67.93555
2022-10-11T03:11:43.733Z,67.9209
2022-10-11T03:13:43.767Z,68.2334
2022-10-11T03:15:43.748Z,68.73926
2022-10-11T03:19:25.023Z,68.57715
2022-10-11T03:21:24.916Z,69.23633
2022-10-11T03:23:24.926Z,69.80371
2022-10-11T03:25:24.978Z,69.78027
2022-10-11T03:27:27.984Z,68.98438
2022-10-11T03:29:24.944Z,68.83398
2022-10-11T03:31:24.924Z,68.22266
2022-10-11T03:34:12.418Z,68.02832
2022-10-11T03:36:12.432Z,67.66699
2022-10-11T03:38:13.249Z,67.76074
2022-10-11T03:40:12.400Z,67.19238
2022-10-11T03:42:12.412Z,67.15234
2022-10-11T03:44:12.375Z,67.33398
2022-10-11T03:46:12.404Z,67.57324
2022-10-11T03:49:09.708Z,68.125
2022-10-11T03:51:09.739Z,68.06348
2022-10-11T03:53:09.778Z,67.95996
2022-10-11T03:55:09.735Z,68.10352
2022-10-11T03:57:09.719Z,68.19141
2022-10-11T03:59:09.769Z,68.26172
2022-10-11T04:01:09.701Z,67.86816
2022-10-11T04:04:21.139Z,67.99609
2022-10-11T04:06:21.082Z,67.69824
2022-10-11T04:08:21.759Z,67.95215
2022-10-11T04:10:21.120Z,68.14551
2022-10-11T04:12:21.078Z,67.83105
2022-10-11T04:14:21.109Z,68.09082
2022-10-11T04:16:21.065Z,67.93262
2022-10-11T04:19:29.834Z,67.81152
2022-10-11T04:21:29.740Z,67.34473
2022-10-11T04:23:29.831Z,67.20117
2022-10-11T04:25:29.761Z,68.39941
2022-10-11T04:27:29.750Z,67.7002
2022-10-11T04:29:33.042Z,67.87598
2022-10-11T04:31:29.714Z,68.2168
2022-10-11T04:35:12.715Z,68.8877
2022-10-11T04:37:12.782Z,69.30762
2022-10-11T04:39:12.751Z,69.05859
2022-10-11T04:41:12.710Z,69.41211
2022-10-11T04:43:12.740Z,69.57715
2022-10-11T04:45:12.689Z,69.78809
2022-10-11T04:47:13.140Z,69.25
2022-10-11T04:49:39.252Z,69.04688
2022-10-11T04:51:39.291Z,68.8877
2022-10-11T04:53:39.292Z,69.30078
2022-10-11T04:55:39.339Z,68.94238
2022-10-11T04:57:39.847Z,69.0459
2022-10-11T04:59:39.322Z,68.89453
2022-10-11T05:01:39.405Z,68.65234
2022-10-11T05:03:39.264Z,68.49316
2022-10-11T05:05:30.551Z,68.33203
2022-10-11T05:07:30.540Z,68.19531
2022-10-11T05:09:30.581Z,69.30176
2022-10-11T05:11:30.578Z,69.46777
2022-10-11T05:13:30.555Z,68.72754
2022-10-11T05:15:30.574Z,68.45996
2022-10-11T05:17:30.545Z,68.5498
2022-10-11T05:20:05.160Z,68.25293
2022-10-11T05:22:05.196Z,68.19531
2022-10-11T05:24:05.197Z,68.82617
2022-10-11T05:26:06.225Z,70.1709
2022-10-11T05:28:05.254Z,69.16309
2022-10-11T05:30:05.185Z,69.49609
2022-10-11T05:32:05.138Z,69.48145
2022-10-11T05:35:25.019Z,68.22656
2022-10-11T05:37:25.090Z,67.98828
2022-10-11T05:39:25.013Z,68.29004
2022-10-11T05:41:25.046Z,68.66113
2022-10-11T05:43:25.047Z,68.3252
2022-10-11T05:45:25.036Z,68.06445
2022-10-11T05:47:24.982Z,67.8252
2022-10-11T05:50:24.673Z,68.00098
2022-10-11T05:52:22.153Z,67.7334
2022-10-11T05:54:22.199Z,67.55762
2022-10-11T05:56:22.157Z,67.73535
2022-10-11T05:58:22.141Z,68.35938
2022-10-11T06:00:22.280Z,68.35938
2022-10-11T06:02:22.142Z,67.90039
2022-10-11T06:04:22.204Z,68.1875
2022-10-11T06:05:44.238Z,68.57715
2022-10-11T06:07:44.233Z,68.21973
2022-10-11T06:09:44.325Z,67.99414
2022-10-11T06:11:44.212Z,67.91992
2022-10-11T06:13:44.238Z,67.78516
2022-10-11T06:15:44.292Z,67.69141
2022-10-11T06:17:44.270Z,67.6582
2022-10-11T06:21:15.887Z,67.8877
2022-10-11T06:23:15.920Z,68.16113
2022-10-11T06:25:15.903Z,68.38184
2022-10-11T06:27:15.911Z,67.79785
2022-10-11T06:29:15.877Z,67.25391
2022-10-11T06:31:15.942Z,67.2002
2022-10-11T06:33:15.896Z,66.84277
2022-10-11T06:35:54.882Z,66.37305
2022-10-11T06:37:54.851Z,66.2793
2022-10-11T06:39:54.845Z,66.73535
2022-10-11T06:41:54.860Z,66.55859
2022-10-11T06:43:54.848Z,66.72461
2022-10-11T06:45:54.864Z,67.10742
2022-10-11T06:47:54.884Z,67.24902
2022-10-11T06:49:54.854Z,66.59766
2022-10-11T06:51:42.465Z,65.88281
2022-10-11T06:53:42.470Z,66.29395
2022-10-11T06:55:42.481Z,66.63672
2022-10-11T06:57:42.534Z,66.71582
2022-10-11T06:59:42.430Z,66.17773
2022-10-11T07:01:42.459Z,65.8418
2022-10-11T07:03:42.467Z,66.24121
2022-10-11T07:06:58.222Z,66.30078
2022-10-11T07:08:58.185Z,66.15918
2022-10-11T07:10:58.183Z,66.06348
2022-10-11T07:12:58.224Z,66.23535
2022-10-11T07:14:58.168Z,65.86523
2022-10-11T07:16:58.164Z,65.98047
2022-10-11T07:19:01.165Z,66.1084
2022-10-11T07:21:45.280Z,65.16016
2022-10-11T07:23:45.308Z,65.30664
2022-10-11T07:25:45.337Z,65.53418
2022-10-11T07:27:45.311Z,65.03027
2022-10-11T07:29:45.287Z,64.11426
2022-10-11T07:31:45.290Z,64.4834
2022-10-11T07:33:45.346Z,65.0127
2022-10-11T07:37:26.669Z,64.64453
2022-10-11T07:39:26.619Z,64.73633
2022-10-11T07:41:26.661Z,65.31152
2022-10-11T07:43:26.730Z,65.49707
2022-10-11T07:45:26.625Z,65.3877
2022-10-11T07:47:26.665Z,65.42188
2022-10-11T07:49:26.618Z,64.96973
2022-10-11T07:52:13.319Z,64.86719
2022-10-11T07:54:13.329Z,65.60156
2022-10-11T07:56:13.328Z,64.65918
2022-10-11T07:58:13.327Z,64.01953
2022-10-11T08:00:13.275Z,64.38477
2022-10-11T08:02:13.298Z,64.36133
2022-10-11T08:04:13.309Z,64.06055
2022-10-11T08:07:22.918Z,64.41309
2022-10-11T08:09:22.942Z,64.52051
2022-10-11T08:11:22.879Z,64.54102
2022-10-11T08:13:22.881Z,63.77734
2022-10-11T08:15:22.884Z,64.07617
2022-10-11T08:17:22.948Z,63.54883
2022-10-11T08:19:22.885Z,63.63086
2022-10-11T08:22:04.960Z,63.8125
2022-10-11T08:24:04.992Z,64.19238
2022-10-11T08:26:05.671Z,63.59863
2022-10-11T08:28:05.029Z,64.51367
2022-10-11T08:30:04.953Z,63.81641
2022-10-11T08:32:04.958Z,64.27441
2022-10-11T08:34:04.951Z,63.22949
2022-10-11T08:36:05.815Z,62.95313
2022-10-11T08:37:22.452Z,62.47852
2022-10-11T08:39:22.414Z,62.57617
2022-10-11T08:41:22.457Z,62.17969
2022-10-11T08:43:22.388Z,61.34766
2022-10-11T08:45:22.410Z,60.82715
2022-10-11T08:47:22.405Z,61.45508
2022-10-11T08:49:22.401Z,61.35547
2022-10-11T08:52:39.695Z,61.11133
2022-10-11T08:54:39.639Z,60.3418
2022-10-11T08:56:39.707Z,60.50391
2022-10-11T08:58:39.679Z,61.32227
2022-10-11T09:00:39.641Z,60.35156
2022-10-11T09:03:07.338Z,58.625
2022-10-11T09:04:39.631Z,59.87402
2022-10-11T09:08:01.410Z,59.2041
2022-10-11T09:10:01.362Z,59.8418
2022-10-11T09:12:01.434Z,58.7168
2022-10-11T09:14:01.403Z,58.83887
2022-10-11T09:16:01.503Z,59.12598
2022-10-11T09:18:01.356Z,57.25195
2022-10-11T09:20:01.374Z,57.75195
2022-10-11T09:22:38.396Z,57.26855
2022-10-11T09:24:38.363Z,57.00293
2022-10-11T09:26:38.397Z,58.0127
2022-10-11T09:28:38.557Z,57.93945
2022-10-11T09:30:38.362Z,57.33203
2022-10-11T09:32:38.357Z,57.17188
2022-10-11T09:34:38.405Z,56.44238
2022-10-11T09:36:38.338Z,56.95508
2022-10-11T09:38:17.045Z,57.37891
2022-10-11T09:40:17.001Z,56.50391
2022-10-11T09:42:17.057Z,56.32617
2022-10-11T09:44:17.105Z,55.70605
2022-10-11T09:46:17.061Z,55.01758
2022-10-11T09:48:17.007Z,54.00391
2022-10-11T09:50:17.056Z,54.08496
2022-10-11T09:53:25.853Z,52.41602
2022-10-11T09:55:25.919Z,53.11914
2022-10-11T09:57:25.842Z,53.30859
2022-10-11T09:59:25.911Z,54.02148
2022-10-11T10:01:26.017Z,54.13184
2022-10-11T10:03:25.860Z,54.22461
2022-10-11T10:05:25.893Z,54.57324
2022-10-11T10:09:01.164Z,52.5791
2022-10-11T10:11:01.160Z,54.30762
2022-10-11T10:13:01.214Z,53.61426
2022-10-11T10:15:01.227Z,53.66016
2022-10-11T10:17:01.215Z,53.03223
2022-10-11T10:19:01.146Z,52.4541
2022-10-11T10:21:01.146Z,50.99512
2022-10-11T10:24:03.139Z,52.17773
2022-10-11T10:26:03.972Z,52.69629
2022-10-11T10:28:03.175Z,53.15723
2022-10-11T10:30:03.164Z,51.58203
2022-10-11T10:32:14.547Z,52.42871
2022-10-11T10:34:03.117Z,52.61816
2022-10-11T10:36:04.007Z,51.85938
2022-10-11T10:38:54.672Z,51.45605
2022-10-11T10:40:54.692Z,50.71289
2022-10-11T10:42:54.748Z,51.0498
2022-10-11T10:44:54.659Z,51.31445
2022-10-11T10:46:54.752Z,52.80859
2022-10-11T10:49:41.431Z,53.1377
2022-10-11T10:50:54.665Z,52.40625
2022-10-11T10:54:20.123Z,51.11035
2022-10-11T10:56:20.179Z,51.13574
2022-10-11T10:58:20.115Z,50.18066
2022-10-11T11:00:20.080Z,50.46094
2022-10-11T11:02:42.382Z,50.28027
2022-10-11T11:04:20.138Z,49.93555
2022-10-11T11:06:20.068Z,51.17871
2022-10-11T11:09:36.374Z,51.94238
2022-10-11T11:11:36.393Z,50.90918
2022-10-11T11:13:36.390Z,50.94531
2022-10-11T11:15:38.514Z,50.07617
2022-10-11T11:17:36.409Z,51.55859
2022-10-11T11:19:36.382Z,51.10645
2022-10-11T11:21:41.844Z,50.53223
2022-10-11T11:24:47.459Z,50.45898
2022-10-11T11:26:47.522Z,51.95801
2022-10-11T11:28:47.588Z,50.55078
2022-10-11T11:30:47.439Z,50.00488
2022-10-11T11:32:47.466Z,50.81543
2022-10-11T11:34:47.548Z,50.49609
2022-10-11T11:36:47.507Z,50.24707
2022-10-11T11:39:09.548Z,49.93652
2022-10-11T11:41:09.595Z,50.21094
2022-10-11T11:43:09.557Z,49.44043
2022-10-11T11:45:09.552Z,50.55469
2022-10-11T11:47:09.560Z,50.41602
2022-10-11T11:49:13.212Z,51.44922
2022-10-11T11:51:09.556Z,51.90625
2022-10-11T11:53:09.549Z,51.28809
2022-10-11T11:54:26.771Z,51.29297
2022-10-11T11:56:26.735Z,50.51953
2022-10-11T11:58:26.732Z,51.01953
2022-10-11T12:00:26.797Z,49.69824
2022-10-11T12:02:26.980Z,50.23242
2022-10-11T12:04:26.743Z,50.26855
2022-10-11T12:06:26.805Z,49.72461
2022-10-11T12:09:32.961Z,49.58691
2022-10-11T12:11:35.658Z,48.91699
2022-10-11T12:13:32.951Z,50.2041
2022-10-11T12:15:32.998Z,50.86133
2022-10-11T12:17:32.980Z,50.07227
2022-10-11T12:19:33.035Z,50.37695
2022-10-11T12:21:33.038Z,49.40918
2022-10-11T12:23:32.959Z,49.59668
2022-10-11T12:24:51.947Z,48.69141
2022-10-11T12:26:51.944Z,48.37988
2022-10-11T12:28:52.014Z,48.32617
2022-10-11T12:30:52.006Z,48.57227
2022-10-11T12:32:52.006Z,49.11035
2022-10-11T12:34:52.044Z,48.89746
2022-10-11T12:36:51.957Z,48.55957
2022-10-11T12:40:16.141Z,49.04004
2022-10-11T12:42:16.139Z,49.56543
2022-10-11T12:44:16.131Z,48.25293
2022-10-11T12:46:16.127Z,48.66992
2022-10-11T12:48:16.161Z,49.74414
2022-10-11T12:50:16.176Z,48.99121
2022-10-11T12:52:16.191Z,48.90723
2022-10-11T12:55:26.162Z,49.20313
2022-10-11T12:57:26.206Z,49.6084
2022-10-11T12:59:26.154Z,48.59082
2022-10-11T13:01:26.277Z,48.67578
2022-10-11T13:03:32.693Z,49.86914
2022-10-11T13:05:26.217Z,49.70801
2022-10-11T13:07:26.153Z,49.33398
2022-10-11T13:10:09.198Z,49.22559
2022-10-11T13:12:08.952Z,49.48535
2022-10-11T13:14:08.959Z,48.9873
2022-10-11T13:16:09.360Z,49.77344
2022-10-11T13:18:08.989Z,49.5293
2022-10-11T13:20:09.209Z,50.18555
2022-10-11T13:22:08.980Z,50.3125
2022-10-11T13:24:09.190Z,50.66602
2022-10-11T13:25:36.378Z,50.9541
2022-10-11T13:27:36.337Z,50.44629
2022-10-11T13:29:36.414Z,50.47949
2022-10-11T13:31:36.377Z,51.25391
2022-10-11T13:33:36.397Z,51.38965
2022-10-11T13:35:36.402Z,51.55371
2022-10-11T13:37:36.369Z,51.41699
2022-10-11T13:40:27.304Z,50.97656
2022-10-11T13:42:27.213Z,51.07617
2022-10-11T13:44:27.210Z,50.6582
2022-10-11T13:46:27.300Z,51.03613
2022-10-11T13:48:32.409Z,51.3125
2022-10-11T13:50:27.247Z,50.80664
2022-10-11T13:52:27.208Z,51.70703
2022-10-11T13:54:27.211Z,52.27441
2022-10-11T13:56:25.023Z,52.62012
2022-10-11T13:58:24.950Z,54.14355
2022-10-11T14:00:24.936Z,53.42578
2022-10-11T14:02:25.007Z,54.34473
2022-10-11T14:04:30.085Z,54.88672
2022-10-11T14:06:24.919Z,54.65137
2022-10-11T14:08:24.909Z,55.01953
2022-10-11T14:11:18.255Z,55.39551
2022-10-11T14:13:18.351Z,54.90234
2022-10-11T14:15:18.223Z,55.02832
2022-10-11T14:17:18.201Z,55.20508
2022-10-11T14:19:18.285Z,54.81152
2022-10-11T14:21:18.231Z,54.3584
2022-10-11T14:23:18.217Z,54.83496
2022-10-11T14:26:04.455Z,55.2207
2022-10-11T14:28:03.629Z,55.53711
2022-10-11T14:30:24.892Z,55.39746
2022-10-11T14:32:03.787Z,55.67773
2022-10-11T14:34:03.978Z,55.83496
2022-10-11T14:36:04.465Z,55.93457
2022-10-11T14:38:03.621Z,55.85742
2022-10-11T14:41:41.548Z,57.27246
2022-10-11T14:43:41.464Z,58.7207
2022-10-11T14:45:41.481Z,59.74902
2022-10-11T14:47:43.427Z,60.50293
2022-10-11T14:49:41.440Z,62.11426
2022-10-11T14:51:41.420Z,62.82617
2022-10-11T14:53:41.467Z,63.44629
2022-10-11T14:56:39.275Z,63.30566
2022-10-11T14:58:39.302Z,63.68359
2022-10-11T15:00:39.322Z,64.08789
2022-10-11T15:02:39.331Z,64.79785
2022-10-11T15:04:39.284Z,64.77051
2022-10-11T15:06:39.281Z,64.99609
2022-10-11T15:08:39.288Z,64.88965
2022-10-11T15:11:43.551Z,65.29883
2022-10-11T15:13:43.588Z,65.46289
2022-10-11T15:15:43.562Z,65.37109
2022-10-11T15:17:43.669Z,65.27051
2022-10-11T15:19:43.742Z,65.54492
2022-10-11T15:21:43.530Z,65.63574
2022-10-11T15:23:43.539Z,65.96582
2022-10-11T15:26:34.975Z,65.78125
2022-10-11T15:28:35.097Z,65.98926
2022-10-11T15:30:41.528Z,66.08203
2022-10-11T15:32:34.936Z,66.81152
2022-10-11T15:34:34.973Z,66.66309
2022-10-11T15:36:34.904Z,66.42676
2022-10-11T15:38:34.890Z,66.88672
2022-10-11T15:40:34.937Z,67.12305
2022-10-11T15:42:37.821Z,67.35352
2022-10-11T15:44:37.802Z,67.24512
2022-10-11T15:46:37.756Z,67.22168
2022-10-11T15:48:37.816Z,67.1582
2022-10-11T15:50:37.784Z,66.89355
2022-10-11T15:52:37.765Z,66.95117
2022-10-11T15:54:37.849Z,67.43359
2022-10-11T15:57:03.114Z,67.36426
2022-10-11T15:59:03.136Z,67.49121
2022-10-11T16:01:03.700Z,67.38477
2022-10-11T16:03:03.102Z,67.45898
2022-10-11T16:05:03.136Z,67.79883
2022-10-11T16:07:03.144Z,68.17773
2022-10-11T16:09:03.114Z,68.28125
2022-10-11T16:11:03.144Z,68.48438
2022-10-11T16:12:06.168Z,68.59668
2022-10-11T16:14:06.222Z,68.10742
2022-10-11T16:16:06.790Z,67.77344
2022-10-11T16:18:06.216Z,67.99512
2022-10-11T16:20:06.313Z,68.10547
2022-10-11T16:22:06.241Z,68.64453
2022-10-11T16:24:06.191Z,68.6748
2022-10-11T16:26:07.017Z,68.82813
2022-10-11T16:27:31.251Z,68.64844
2022-10-11T16:29:31.231Z,68.70117
2022-10-11T16:31:31.200Z,68.72363
2022-10-11T16:33:31.302Z,68.65723
2022-10-11T16:35:32.985Z,68.49707
2022-10-11T16:37:31.203Z,68.59961
2022-10-11T16:39:31.280Z,68.29395
2022-10-11T16:42:23.010Z,68.48145
2022-10-11T16:44:22.980Z,68.51855
2022-10-11T16:46:22.988Z,68.45801
2022-10-11T16:48:22.982Z,69.1084
2022-10-11T16:50:23.013Z,69.04785
2022-10-11T16:52:23.036Z,69.39746
2022-10-11T16:54:23.010Z,69.29297
2022-10-11T16:56:23.026Z,68.8623
2022-10-11T16:57:48.399Z,69.03613
2022-10-11T16:59:48.412Z,69.2207
2022-10-11T17:01:48.477Z,69.16602
2022-10-11T17:03:48.365Z,69.40332
2022-10-11T17:05:48.415Z,69.61914
2022-10-11T17:07:48.456Z,69.65723
2022-10-11T17:09:48.383Z,69.8125
2022-10-11T17:13:23.854Z,69.8252
2022-10-11T17:15:23.951Z,69.73145
2022-10-11T17:17:23.930Z,69.63867
2022-10-11T17:19:23.853Z,69.88965
2022-10-11T17:21:23.870Z,70.01172
2022-10-11T17:23:23.902Z,70.1875
2022-10-11T17:25:23.933Z,70.13184
2022-10-11T17:28:38.219Z,69.8623
2022-10-11T17:30:38.050Z,69.97168
2022-10-11T17:32:37.988Z,70.06934
2022-10-11T17:34:38.003Z,70.13281
2022-10-11T17:36:38.009Z,69.69336
2022-10-11T17:38:37.991Z,70.0293
2022-10-11T17:40:38.007Z,70.13574
2022-10-11T17:43:37.510Z,69.97168
2022-10-11T17:45:37.425Z,69.71777
2022-10-11T17:47:37.558Z,69.83398
2022-10-11T17:49:37.464Z,69.59375
2022-10-11T17:51:37.455Z,69.7207
2022-10-11T17:53:37.495Z,70.11621
2022-10-11T17:55:37.433Z,69.9834
2022-10-11T17:58:38.059Z,70.01953
2022-10-11T18:00:38.072Z,70.22754
2022-10-11T18:02:37.945Z,70.19043
2022-10-11T18:04:37.952Z,70.42285
2022-10-11T18:06:38.021Z,70.47852
2022-10-11T18:08:41.030Z,70.1377
2022-10-11T18:10:37.905Z,69.87891
2022-10-11T18:13:39.467Z,70.00586
2022-10-11T18:15:39.490Z,69.7207
2022-10-11T18:17:39.425Z,69.84863
2022-10-11T18:19:39.403Z,69.73242
2022-10-11T18:21:39.442Z,70.00684
2022-10-11T18:23:39.372Z,70.21582
2022-10-11T18:25:39.420Z,70.65332
2022-10-11T18:29:07.794Z,70.85742
2022-10-11T18:31:14.019Z,70.57617
2022-10-11T18:33:07.860Z,71.29883
2022-10-11T18:35:07.748Z,71.19238
2022-10-11T18:37:07.753Z,71.00977
2022-10-11T18:39:07.834Z,70.70898
2022-10-11T18:41:08.792Z,71.09082
2022-10-11T18:43:56.366Z,71.18066
2022-10-11T18:45:56.392Z,71.16602
2022-10-11T18:47:56.322Z,70.95605
2022-10-11T18:49:56.345Z,71.27051
2022-10-11T18:51:56.358Z,71.26563
2022-10-11T18:53:56.284Z,71.14258
2022-10-11T18:55:56.340Z,71.33984
2022-10-11T18:59:24.594Z,71.55566
2022-10-11T19:01:24.982Z,71.37598
2022-10-11T19:03:24.594Z,71.30859
2022-10-11T19:05:24.601Z,72.00391
2022-10-11T19:07:24.639Z,72.24512
2022-10-11T19:09:24.598Z,72.21387
2022-10-11T19:11:24.619Z,71.74805
2022-10-11T19:15:00.077Z,71.94141
2022-10-11T19:17:00.009Z,72.04492
2022-10-11T19:19:00.032Z,71.99219
2022-10-11T19:20:59.948Z,71.96973
2022-10-11T19:23:00.038Z,71.87891
2022-10-11T19:24:59.974Z,71.91992
2022-10-11T19:27:03.214Z,72.2002
2022-10-11T19:29:50.078Z,71.9043
2022-10-11T19:31:50.093Z,72.23828
2022-10-11T19:33:50.090Z,72.09766
2022-10-11T19:35:50.046Z,72.03809
2022-10-11T19:37:50.081Z,72.13379
2022-10-11T19:39:50.015Z,72.2002
2022-10-11T19:41:50.003Z,72.27051
2022-10-11T19:44:48.008Z,72.33105
2022-10-11T19:46:53.219Z,72.41504
2022-10-11T19:48:48.022Z,72.43359
2022-10-11T19:50:48.109Z,72.68457
2022-10-11T19:52:48.095Z,72.93945
2022-10-11T19:54:48.004Z,72.60059
2022-10-11T19:56:47.979Z,73.19336
2022-10-11T19:59:44.010Z,72.81543
2022-10-11T20:01:52.197Z,72.88184
2022-10-11T20:03:44.041Z,73.25098
2022-10-11T20:05:43.965Z,72.68457
2022-10-11T20:07:43.988Z,72.60742
2022-10-11T20:09:44.026Z,72.69238
2022-10-11T20:11:44.001Z,72.70996
2022-10-11T20:13:43.958Z,72.37988
2022-10-11T20:15:35.244Z,72.50195
2022-10-11T20:17:35.223Z,72.42383
2022-10-11T20:19:35.315Z,72.18066
2022-10-11T20:21:35.249Z,72.36914
2022-10-11T20:23:35.462Z,72.48047
2022-10-11T20:25:35.294Z,72.15723
2022-10-11T20:27:35.313Z,72.19727
2022-10-11T20:30:07.072Z,72.39648
2022-10-11T20:32:07.081Z,72.47461
2022-10-11T20:34:07.204Z,72.53223
2022-10-11T20:36:07.051Z,72.71973
2022-10-11T20:38:07.080Z,73.07715
2022-10-11T20:40:07.084Z,73.39453
2022-10-11T20:42:07.103Z,73.12402
2022-10-11T20:45:36.921Z,72.75879
2022-10-11T20:47:36.879Z,72.54395
2022-10-11T20:49:36.872Z,72.36914
2022-10-11T20:51:36.915Z,72.05957
2022-10-11T20:53:36.863Z,72.0625
2022-10-11T20:55:36.923Z,71.98535
2022-10-11T20:57:36.892Z,71.82129
2022-10-11T21:00:17.688Z,71.87402
2022-10-11T21:02:19.305Z,71.95898
2022-10-11T21:04:17.717Z,72.1416
2022-10-11T21:06:17.700Z,72.16211
2022-10-11T21:08:17.788Z,72.24121
2022-10-11T21:10:17.702Z,72.1084
2022-10-11T21:12:17.701Z,72.03418
2022-10-11T21:14:17.713Z,72.13184
2022-10-11T21:15:54.006Z,71.98926
2022-10-11T21:17:53.616Z,72.02832
2022-10-11T21:19:53.503Z,72.24121
2022-10-11T21:21:54.155Z,72.20117
2022-10-11T21:23:53.547Z,72.22363
2022-10-11T21:25:53.471Z,72.19336
2022-10-11T21:27:53.496Z,71.91504
2022-10-11T21:30:57.957Z,71.91504
2022-10-11T21:32:57.958Z,71.84082
2022-10-11T21:34:57.927Z,71.69727
2022-10-11T21:36:57.974Z,71.69922
2022-10-11T21:38:57.953Z,71.49023
2022-10-11T21:40:57.925Z,71.52734
2022-10-11T21:42:57.975Z,71.62207
2022-10-11T21:46:23.725Z,71.80078
2022-10-11T21:48:23.213Z,71.71777
2022-10-11T21:50:23.166Z,71.65137
2022-10-11T21:52:23.175Z,71.73535
2022-10-11T21:54:23.142Z,71.6875
2022-10-11T21:56:23.186Z,71.92773
2022-10-11T21:58:23.177Z,71.6416
2022-10-11T22:01:01.751Z,71.82129
2022-10-11T22:03:01.775Z,71.84668
2022-10-11T22:05:01.727Z,71.84766
2022-10-11T22:07:01.740Z,71.75781
2022-10-11T22:09:01.908Z,71.83105
2022-10-11T22:11:01.717Z,71.71777
2022-10-11T22:13:01.728Z,71.58301
2022-10-11T22:15:01.951Z,71.62695
2022-10-11T22:16:24.891Z,71.83008
2022-10-11T22:18:24.940Z,71.85645
2022-10-11T22:20:24.945Z,71.55566
2022-10-11T22:22:24.936Z,71.70703
2022-10-11T22:24:24.883Z,71.7959
2022-10-11T22:26:24.914Z,71.5752
2022-10-11T22:28:25.062Z,71.58008
2022-10-11T22:31:54.520Z,71.75684
2022-10-11T22:33:54.546Z,71.50391
2022-10-11T22:35:54.508Z,71.61426
2022-10-11T22:37:54.504Z,71.54395
2022-10-11T22:39:54.493Z,71.4707
2022-10-11T22:41:54.494Z,71.55859
2022-10-11T22:43:54.513Z,71.7998
2022-10-11T22:47:16.497Z,71.80273
2022-10-11T22:49:16.533Z,71.97168
2022-10-11T22:51:16.460Z,71.88477
2022-10-11T22:53:16.476Z,71.7002
2022-10-11T22:55:20.486Z,71.62012
2022-10-11T22:57:16.491Z,71.93652
2022-10-11T22:59:16.447Z,72.21582
2022-10-11T23:02:25.599Z,71.9834
2022-10-11T23:04:25.557Z,72.0625
2022-10-11T23:06:25.635Z,72.02637
2022-10-11T23:08:25.534Z,72.07129
2022-10-11T23:10:25.523Z,72.11816
2022-10-11T23:12:25.570Z,72.45996
2022-10-11T23:14:25.532Z,72.4834
2022-10-11T23:16:51.406Z,72.40625
2022-10-11T23:18:51.406Z,72.31836
2022-10-11T23:20:51.401Z,71.94043
2022-10-11T23:22:51.366Z,72.36816
2022-10-11T23:24:51.380Z,72.15723
2022-10-11T23:26:51.406Z,72.07422
2022-10-11T23:28:51.444Z,71.99707
2022-10-11T23:30:51.382Z,71.72266
2022-10-11T23:32:44.241Z,71.96484
2022-10-11T23:34:44.197Z,71.77344
2022-10-11T23:36:44.157Z,71.49805
2022-10-11T23:38:44.156Z,71.90137
2022-10-11T23:40:44.229Z,71.9248
2022-10-11T23:42:44.175Z,71.77344
2022-10-11T23:44:44.170Z,71.89551
2022-10-11T23:47:35.338Z,71.91895
2022-10-11T23:49:34.796Z,71.73242
2022-10-11T23:51:34.870Z,71.99316
2022-10-11T23:53:34.846Z,71.97266
2022-10-11T23:55:34.836Z,71.80664
2022-10-11T23:57:35.302Z,71.94531
2022-10-11T23:59:34.821Z,72.07129
